sensor_id;sensor_type;location;lat;lon;timestamp;pressure;altitude;pressure_sealevel;temperature;humidity
74868;BME280;63419;42.262;12.210;2023-08-01T00:00:30;96998.66;;;23.57;100.00
74868;BME280;63419;42.262;12.210;2023-08-01T00:02:57;97017.88;;;23.23;100.00
74868;BME280;63419;42.262;12.210;2023-08-01T00:05:23;97027.53;;;23.16;100.00
74868;BME280;63419;42.262;12.210;2023-08-01T00:07:49;97001.63;;;24.11;100.00
74868;BME280;63419;42.262;12.210;2023-08-01T00:10:16;97000.19;;;24.70;100.00
74868;BME280;63419;42.262;12.210;2023-08-01T00:12:42;96992.13;;;25.12;100.00
74868;BME280;63419;42.262;12.210;2023-08-01T00:15:09;96988.06;;;25.29;100.00
74868;BME280;63419;42.262;12.210;2023-08-01T00:17:35;96998.63;;;24.27;100.00
74868;BME280;63419;42.262;12.210;2023-08-01T00:20:02;97001.47;;;24.32;100.00
74868;BME280;63419;42.262;12.210;2023-08-01T00:22:29;96989.00;;;24.61;100.00
74868;BME280;63419;42.262;12.210;2023-08-01T00:24:55;96975.47;;;25.18;100.00
74868;BME280;63419;42.262;12.210;2023-08-01T00:27:22;96959.75;;;25.76;100.00
74868;BME280;63419;42.262;12.210;2023-08-01T00:29:48;96955.19;;;26.03;100.00
74868;BME280;63419;42.262;12.210;2023-08-01T00:32:14;96972.84;;;25.24;100.00
74868;BME280;63419;42.262;12.210;2023-08-01T00:34:40;96964.38;;;25.81;100.00
74868;BME280;63419;42.262;12.210;2023-08-01T00:37:06;96963.78;;;25.86;100.00
74868;BME280;63419;42.262;12.210;2023-08-01T00:39:33;96954.66;;;25.81;100.00
74868;BME280;63419;42.262;12.210;2023-08-01T00:41:59;96946.47;;;26.03;100.00
74868;BME280;63419;42.262;12.210;2023-08-01T00:44:25;96936.88;;;26.47;100.00
74868;BME280;63419;42.262;12.210;2023-08-01T00:46:51;96954.72;;;25.55;100.00
74868;BME280;63419;42.262;12.210;2023-08-01T00:49:18;96957.81;;;25.38;100.00
74868;BME280;63419;42.262;12.210;2023-08-01T00:51:45;96947.34;;;25.70;100.00
74868;BME280;63419;42.262;12.210;2023-08-01T00:54:12;96938.94;;;26.00;100.00
74868;BME280;63419;42.262;12.210;2023-08-01T00:56:38;96940.00;;;25.86;100.00
74868;BME280;63419;42.262;12.210;2023-08-01T00:59:05;96931.63;;;26.02;100.00
74868;BME280;63419;42.262;12.210;2023-08-01T01:01:31;96934.66;;;26.06;100.00
74868;BME280;63419;42.262;12.210;2023-08-01T01:03:58;96930.34;;;26.11;100.00
74868;BME280;63419;42.262;12.210;2023-08-01T01:06:42;96924.47;;;26.09;100.00
74868;BME280;63419;42.262;12.210;2023-08-01T01:09:19;96922.53;;;26.30;100.00
74868;BME280;63419;42.262;12.210;2023-08-01T01:11:47;96915.19;;;26.32;100.00
74868;BME280;63419;42.262;12.210;2023-08-01T01:14:13;96914.78;;;26.35;100.00
74868;BME280;63419;42.262;12.210;2023-08-01T01:16:39;96908.88;;;26.65;100.00
74868;BME280;63419;42.262;12.210;2023-08-01T01:19:09;96901.19;;;26.56;100.00
74868;BME280;63419;42.262;12.210;2023-08-01T01:21:38;96915.88;;;26.20;100.00
74868;BME280;63419;42.262;12.210;2023-08-01T01:24:08;96919.34;;;26.14;100.00
74868;BME280;63419;42.262;12.210;2023-08-01T01:26:36;96916.13;;;26.12;100.00
74868;BME280;63419;42.262;12.210;2023-08-01T01:29:05;96924.75;;;25.88;100.00
74868;BME280;63419;42.262;12.210;2023-08-01T01:31:33;96920.91;;;25.83;100.00
74868;BME280;63419;42.262;12.210;2023-08-01T01:34:00;96913.94;;;26.02;100.00
74868;BME280;63419;42.262;12.210;2023-08-01T01:36:26;96896.75;;;26.50;100.00
74868;BME280;63419;42.262;12.210;2023-08-01T01:38:53;96892.41;;;26.63;100.00
74868;BME280;63419;42.262;12.210;2023-08-01T01:41:19;96915.72;;;25.43;100.00
74868;BME280;63419;42.262;12.210;2023-08-01T01:43:45;96914.34;;;25.41;100.00
74868;BME280;63419;42.262;12.210;2023-08-01T01:46:11;96900.44;;;26.17;100.00
74868;BME280;63419;42.262;12.210;2023-08-01T01:48:38;96902.00;;;25.87;100.00
74868;BME280;63419;42.262;12.210;2023-08-01T01:51:04;96891.09;;;25.63;100.00
74868;BME280;63419;42.262;12.210;2023-08-01T01:53:30;96890.19;;;25.89;100.00
74868;BME280;63419;42.262;12.210;2023-08-01T01:55:56;96875.78;;;26.24;100.00
74868;BME280;63419;42.262;12.210;2023-08-01T01:58:22;96887.28;;;26.04;100.00
74868;BME280;63419;42.262;12.210;2023-08-01T02:00:49;96887.00;;;26.19;100.00
74868;BME280;63419;42.262;12.210;2023-08-01T02:03:15;96888.94;;;25.98;100.00
74868;BME280;63419;42.262;12.210;2023-08-01T02:05:41;96876.88;;;26.41;100.00
74868;BME280;63419;42.262;12.210;2023-08-01T02:08:07;96888.09;;;26.05;100.00
74868;BME280;63419;42.262;12.210;2023-08-01T02:10:33;96880.34;;;26.10;100.00
74868;BME280;63419;42.262;12.210;2023-08-01T02:13:00;96879.41;;;25.97;100.00
74868;BME280;63419;42.262;12.210;2023-08-01T02:15:26;96876.63;;;26.17;100.00
74868;BME280;63419;42.262;12.210;2023-08-01T02:17:52;96879.41;;;25.91;100.00
74868;BME280;63419;42.262;12.210;2023-08-01T02:20:18;96875.91;;;25.52;100.00
74868;BME280;63419;42.262;12.210;2023-08-01T02:22:45;96895.00;;;25.54;100.00
74868;BME280;63419;42.262;12.210;2023-08-01T02:25:11;96879.31;;;25.65;100.00
74868;BME280;63419;42.262;12.210;2023-08-01T02:27:37;96883.72;;;25.78;100.00
74868;BME280;63419;42.262;12.210;2023-08-01T02:30:03;96881.19;;;26.03;100.00
74868;BME280;63419;42.262;12.210;2023-08-01T02:32:31;96865.16;;;26.30;100.00
74868;BME280;63419;42.262;12.210;2023-08-01T02:34:57;96886.06;;;25.55;100.00
74868;BME280;63419;42.262;12.210;2023-08-01T02:37:24;96894.47;;;25.25;100.00
74868;BME280;63419;42.262;12.210;2023-08-01T02:39:50;96877.84;;;25.76;100.00
74868;BME280;63419;42.262;12.210;2023-08-01T02:42:16;96874.41;;;25.69;100.00
74868;BME280;63419;42.262;12.210;2023-08-01T02:44:42;96870.00;;;25.56;100.00
74868;BME280;63419;42.262;12.210;2023-08-01T02:47:08;96871.19;;;25.67;100.00
74868;BME280;63419;42.262;12.210;2023-08-01T02:49:34;96867.00;;;25.84;100.00
74868;BME280;63419;42.262;12.210;2023-08-01T02:52:00;96862.91;;;26.02;100.00
74868;BME280;63419;42.262;12.210;2023-08-01T02:54:26;96871.97;;;25.74;100.00
74868;BME280;63419;42.262;12.210;2023-08-01T02:56:52;96867.47;;;25.75;100.00
74868;BME280;63419;42.262;12.210;2023-08-01T02:59:18;96871.38;;;25.65;100.00
74868;BME280;63419;42.262;12.210;2023-08-01T03:01:45;96882.66;;;25.34;100.00
74868;BME280;63419;42.262;12.210;2023-08-01T03:04:11;96877.78;;;25.38;100.00
74868;BME280;63419;42.262;12.210;2023-08-01T03:06:38;96888.31;;;25.51;100.00
74868;BME280;63419;42.262;12.210;2023-08-01T03:09:04;96882.66;;;25.27;100.00
74868;BME280;63419;42.262;12.210;2023-08-01T03:11:35;96875.09;;;25.51;100.00
74868;BME280;63419;42.262;12.210;2023-08-01T03:14:01;96879.03;;;25.29;100.00
74868;BME280;63419;42.262;12.210;2023-08-01T03:16:27;96892.63;;;25.19;100.00
74868;BME280;63419;42.262;12.210;2023-08-01T03:18:53;96882.25;;;25.37;100.00
74868;BME280;63419;42.262;12.210;2023-08-01T03:21:19;96884.69;;;25.32;100.00
74868;BME280;63419;42.262;12.210;2023-08-01T03:23:46;96880.41;;;25.38;100.00
74868;BME280;63419;42.262;12.210;2023-08-01T03:26:12;96881.38;;;25.57;100.00
74868;BME280;63419;42.262;12.210;2023-08-01T03:28:38;96887.34;;;25.19;100.00
74868;BME280;63419;42.262;12.210;2023-08-01T03:31:04;96885.13;;;25.16;100.00
74868;BME280;63419;42.262;12.210;2023-08-01T03:33:32;96884.22;;;25.49;100.00
74868;BME280;63419;42.262;12.210;2023-08-01T03:35:58;96877.56;;;25.39;100.00
74868;BME280;63419;42.262;12.210;2023-08-01T03:38:24;96881.44;;;25.17;100.00
74868;BME280;63419;42.262;12.210;2023-08-01T03:40:51;96891.44;;;24.88;100.00
74868;BME280;63419;42.262;12.210;2023-08-01T03:43:17;96894.28;;;24.66;100.00
74868;BME280;63419;42.262;12.210;2023-08-01T03:45:43;96893.69;;;24.71;100.00
74868;BME280;63419;42.262;12.210;2023-08-01T03:48:08;96887.38;;;24.85;100.00
74868;BME280;63419;42.262;12.210;2023-08-01T03:50:35;96895.31;;;24.85;100.00
74868;BME280;63419;42.262;12.210;2023-08-01T03:53:01;96891.63;;;25.06;100.00
74868;BME280;63419;42.262;12.210;2023-08-01T03:55:47;96891.63;;;25.06;100.00
74868;BME280;63419;42.262;12.210;2023-08-01T03:58:14;96902.41;;;24.85;100.00
74868;BME280;63419;42.262;12.210;2023-08-01T04:00:41;96893.03;;;25.16;100.00
74868;BME280;63419;42.262;12.210;2023-08-01T04:03:06;96899.53;;;25.00;100.00
74868;BME280;63419;42.262;12.210;2023-08-01T04:05:33;96902.19;;;25.06;100.00
74868;BME280;63419;42.262;12.210;2023-08-01T04:07:59;96910.72;;;25.02;100.00
74868;BME280;63419;42.262;12.210;2023-08-01T04:10:25;96910.91;;;25.07;100.00
74868;BME280;63419;42.262;12.210;2023-08-01T04:12:52;96915.59;;;24.72;100.00
74868;BME280;63419;42.262;12.210;2023-08-01T04:15:18;96912.94;;;24.92;100.00
74868;BME280;63419;42.262;12.210;2023-08-01T04:17:44;96914.75;;;25.04;100.00
74868;BME280;63419;42.262;12.210;2023-08-01T04:20:10;96903.28;;;25.64;100.00
74868;BME280;63419;42.262;12.210;2023-08-01T04:22:36;96901.94;;;25.41;100.00
74868;BME280;63419;42.262;12.210;2023-08-01T04:25:03;96922.50;;;24.93;100.00
74868;BME280;63419;42.262;12.210;2023-08-01T04:27:29;96940.44;;;24.29;100.00
74868;BME280;63419;42.262;12.210;2023-08-01T04:29:56;96957.00;;;23.33;100.00
74868;BME280;63419;42.262;12.210;2023-08-01T04:32:22;96963.41;;;23.24;100.00
74868;BME280;63419;42.262;12.210;2023-08-01T04:34:49;96954.84;;;24.26;100.00
74868;BME280;63419;42.262;12.210;2023-08-01T04:37:15;96934.47;;;24.82;100.00
74868;BME280;63419;42.262;12.210;2023-08-01T04:39:41;96941.53;;;24.61;100.00
74868;BME280;63419;42.262;12.210;2023-08-01T04:42:07;96938.13;;;24.94;100.00
74868;BME280;63419;42.262;12.210;2023-08-01T04:44:34;96923.28;;;25.26;100.00
74868;BME280;63419;42.262;12.210;2023-08-01T04:47:00;96932.03;;;25.27;100.00
74868;BME280;63419;42.262;12.210;2023-08-01T04:49:26;96938.72;;;25.30;100.00
74868;BME280;63419;42.262;12.210;2023-08-01T04:51:53;96931.47;;;25.83;100.00
74868;BME280;63419;42.262;12.210;2023-08-01T04:54:19;96918.94;;;26.17;100.00
74868;BME280;63419;42.262;12.210;2023-08-01T04:56:46;96953.13;;;25.07;100.00
74868;BME280;63419;42.262;12.210;2023-08-01T04:59:12;96950.28;;;25.08;100.00
74868;BME280;63419;42.262;12.210;2023-08-01T05:01:38;96990.53;;;24.29;100.00
74868;BME280;63419;42.262;12.210;2023-08-01T05:04:04;97014.84;;;24.24;100.00
74868;BME280;63419;42.262;12.210;2023-08-01T05:06:31;97024.31;;;23.77;100.00
74868;BME280;63419;42.262;12.210;2023-08-01T05:08:57;97028.69;;;24.40;100.00
74868;BME280;63419;42.262;12.210;2023-08-01T05:11:23;97030.69;;;24.31;100.00
74868;BME280;63419;42.262;12.210;2023-08-01T05:13:49;97021.69;;;24.60;100.00
74868;BME280;63419;42.262;12.210;2023-08-01T05:16:16;97001.44;;;24.94;100.00
74868;BME280;63419;42.262;12.210;2023-08-01T05:18:42;96977.66;;;25.61;100.00
74868;BME280;63419;42.262;12.210;2023-08-01T05:21:08;96951.03;;;26.28;100.00
74868;BME280;63419;42.262;12.210;2023-08-01T05:23:34;96948.78;;;26.25;100.00
74868;BME280;63419;42.262;12.210;2023-08-01T05:26:00;96932.56;;;26.53;100.00
74868;BME280;63419;42.262;12.210;2023-08-01T05:28:27;96947.38;;;26.22;100.00
74868;BME280;63419;42.262;12.210;2023-08-01T05:31:00;96933.03;;;26.75;100.00
74868;BME280;63419;42.262;12.210;2023-08-01T05:33:26;96937.03;;;26.84;100.00
74868;BME280;63419;42.262;12.210;2023-08-01T05:35:52;96931.59;;;27.04;100.00
74868;BME280;63419;42.262;12.210;2023-08-01T05:38:19;96943.41;;;26.76;100.00
74868;BME280;63419;42.262;12.210;2023-08-01T05:40:45;96925.84;;;27.32;100.00
74868;BME280;63419;42.262;12.210;2023-08-01T05:43:12;96910.34;;;27.91;100.00
74868;BME280;63419;42.262;12.210;2023-08-01T05:45:38;96973.56;;;25.78;100.00
74868;BME280;63419;42.262;12.210;2023-08-01T05:48:05;96957.94;;;26.67;100.00
74868;BME280;63419;42.262;12.210;2023-08-01T05:50:31;96960.03;;;26.84;100.00
74868;BME280;63419;42.262;12.210;2023-08-01T05:52:58;96933.00;;;27.25;100.00
74868;BME280;63419;42.262;12.210;2023-08-01T05:55:24;96952.06;;;27.15;100.00
74868;BME280;63419;42.262;12.210;2023-08-01T05:57:50;96955.94;;;26.88;100.00
74868;BME280;63419;42.262;12.210;2023-08-01T06:00:19;96928.56;;;27.81;100.00
74868;BME280;63419;42.262;12.210;2023-08-01T06:02:48;96949.41;;;26.58;100.00
74868;BME280;63419;42.262;12.210;2023-08-01T06:05:16;97017.09;;;25.36;100.00
74868;BME280;63419;42.262;12.210;2023-08-01T06:07:42;96989.63;;;26.35;100.00
74868;BME280;63419;42.262;12.210;2023-08-01T06:10:09;97029.47;;;25.49;100.00
74868;BME280;63419;42.262;12.210;2023-08-01T06:12:36;96985.38;;;26.73;100.00
74868;BME280;63419;42.262;12.210;2023-08-01T06:15:02;96968.03;;;27.02;100.00
74868;BME280;63419;42.262;12.210;2023-08-01T06:17:29;96958.88;;;26.80;100.00
74868;BME280;63419;42.262;12.210;2023-08-01T06:19:55;96974.50;;;26.49;100.00
74868;BME280;63419;42.262;12.210;2023-08-01T06:22:21;96974.66;;;26.86;100.00
74868;BME280;63419;42.262;12.210;2023-08-01T06:24:47;96959.06;;;26.78;100.00
74868;BME280;63419;42.262;12.210;2023-08-01T06:27:14;96958.53;;;26.94;100.00
74868;BME280;63419;42.262;12.210;2023-08-01T06:29:41;96951.72;;;27.05;100.00
74868;BME280;63419;42.262;12.210;2023-08-01T06:32:07;96938.94;;;27.27;100.00
74868;BME280;63419;42.262;12.210;2023-08-01T06:34:34;96980.41;;;25.93;100.00
74868;BME280;63419;42.262;12.210;2023-08-01T06:37:00;97027.84;;;25.14;100.00
74868;BME280;63419;42.262;12.210;2023-08-01T06:39:26;96983.00;;;26.58;100.00
74868;BME280;63419;42.262;12.210;2023-08-01T06:41:52;96984.31;;;26.42;100.00
74868;BME280;63419;42.262;12.210;2023-08-01T06:44:18;96971.94;;;26.74;100.00
74868;BME280;63419;42.262;12.210;2023-08-01T06:46:44;96944.00;;;27.29;100.00
74868;BME280;63419;42.262;12.210;2023-08-01T06:49:10;96912.75;;;28.54;100.00
74868;BME280;63419;42.262;12.210;2023-08-01T06:51:37;96929.84;;;27.60;100.00
74868;BME280;63419;42.262;12.210;2023-08-01T06:54:03;96906.06;;;28.21;100.00
74868;BME280;63419;42.262;12.210;2023-08-01T06:56:29;96911.09;;;28.10;100.00
74868;BME280;63419;42.262;12.210;2023-08-01T06:58:55;96913.41;;;27.51;100.00
74868;BME280;63419;42.262;12.210;2023-08-01T07:01:22;96957.66;;;26.75;100.00
74868;BME280;63419;42.262;12.210;2023-08-01T07:03:48;96920.63;;;27.81;100.00
74868;BME280;63419;42.262;12.210;2023-08-01T07:09:01;96864.94;;;29.72;100.00
74868;BME280;63419;42.262;12.210;2023-08-01T07:11:28;96934.31;;;26.66;100.00
74868;BME280;63419;42.262;12.210;2023-08-01T07:13:54;96960.50;;;25.97;100.00
74868;BME280;63419;42.262;12.210;2023-08-01T07:16:20;96931.69;;;26.66;100.00
74868;BME280;63419;42.262;12.210;2023-08-01T07:18:46;96884.28;;;28.30;100.00
74868;BME280;63419;42.262;12.210;2023-08-01T07:21:14;96865.28;;;28.76;100.00
74868;BME280;63419;42.262;12.210;2023-08-01T07:23:40;96880.41;;;27.54;100.00
74868;BME280;63419;42.262;12.210;2023-08-01T07:26:07;96885.38;;;27.62;100.00
74868;BME280;63419;42.262;12.210;2023-08-01T07:28:33;96895.50;;;27.10;100.00
74868;BME280;63419;42.262;12.210;2023-08-01T07:31:06;96855.69;;;28.63;100.00
74868;BME280;63419;42.262;12.210;2023-08-01T07:33:34;96837.44;;;29.02;100.00
74868;BME280;63419;42.262;12.210;2023-08-01T07:36:00;96835.19;;;29.46;100.00
74868;BME280;63419;42.262;12.210;2023-08-01T07:38:26;96816.72;;;29.80;100.00
74868;BME280;63419;42.262;12.210;2023-08-01T07:40:53;96815.00;;;29.74;100.00
74868;BME280;63419;42.262;12.210;2023-08-01T07:43:20;96826.13;;;28.95;100.00
74868;BME280;63419;42.262;12.210;2023-08-01T07:45:46;96837.91;;;28.99;100.00
74868;BME280;63419;42.262;12.210;2023-08-01T07:48:16;96830.16;;;29.21;100.00
74868;BME280;63419;42.262;12.210;2023-08-01T07:50:42;96814.72;;;29.87;100.00
74868;BME280;63419;42.262;12.210;2023-08-01T07:53:08;96821.78;;;29.93;100.00
74868;BME280;63419;42.262;12.210;2023-08-01T07:55:35;96802.00;;;30.52;100.00
74868;BME280;63419;42.262;12.210;2023-08-01T07:58:01;96794.03;;;30.52;100.00
74868;BME280;63419;42.262;12.210;2023-08-01T08:00:27;96834.88;;;29.07;100.00
74868;BME280;63419;42.262;12.210;2023-08-01T08:02:54;96819.47;;;29.45;100.00
74868;BME280;63419;42.262;12.210;2023-08-01T08:05:20;96816.22;;;29.54;100.00
74868;BME280;63419;42.262;12.210;2023-08-01T08:07:46;96830.50;;;29.24;100.00
74868;BME280;63419;42.262;12.210;2023-08-01T08:10:12;96837.22;;;28.92;100.00
74868;BME280;63419;42.262;12.210;2023-08-01T08:12:38;96830.75;;;29.64;100.00
74868;BME280;63419;42.262;12.210;2023-08-01T08:15:05;96819.91;;;29.94;100.00
74868;BME280;63419;42.262;12.210;2023-08-01T08:17:32;96833.50;;;28.93;100.00
74868;BME280;63419;42.262;12.210;2023-08-01T08:19:58;96869.50;;;27.44;100.00
74868;BME280;63419;42.262;12.210;2023-08-01T08:22:24;96862.53;;;28.40;100.00
74868;BME280;63419;42.262;12.210;2023-08-01T08:24:50;96813.25;;;30.08;100.00
74868;BME280;63419;42.262;12.210;2023-08-01T08:27:16;96812.44;;;30.25;100.00
74868;BME280;63419;42.262;12.210;2023-08-01T08:29:43;96838.22;;;28.43;100.00
74868;BME280;63419;42.262;12.210;2023-08-01T08:32:09;96804.44;;;30.36;100.00
74868;BME280;63419;42.262;12.210;2023-08-01T08:34:35;96808.66;;;30.04;100.00
74868;BME280;63419;42.262;12.210;2023-08-01T08:37:02;96841.47;;;28.93;100.00
74868;BME280;63419;42.262;12.210;2023-08-01T08:39:28;96817.78;;;29.67;100.00
74868;BME280;63419;42.262;12.210;2023-08-01T08:41:54;96830.97;;;28.98;100.00
74868;BME280;63419;42.262;12.210;2023-08-01T08:44:20;96797.47;;;30.35;100.00
74868;BME280;63419;42.262;12.210;2023-08-01T08:46:51;96839.25;;;28.42;100.00
74868;BME280;63419;42.262;12.210;2023-08-01T08:49:20;96815.78;;;29.86;100.00
74868;BME280;63419;42.262;12.210;2023-08-01T08:51:49;96781.38;;;31.42;100.00
74868;BME280;63419;42.262;12.210;2023-08-01T08:54:16;96795.72;;;30.41;100.00
74868;BME280;63419;42.262;12.210;2023-08-01T08:56:43;96779.59;;;31.26;100.00
74868;BME280;63419;42.262;12.210;2023-08-01T08:59:10;96789.41;;;31.03;100.00
74868;BME280;63419;42.262;12.210;2023-08-01T09:01:37;96785.41;;;31.23;100.00
74868;BME280;63419;42.262;12.210;2023-08-01T09:04:04;96814.69;;;30.16;100.00
74868;BME280;63419;42.262;12.210;2023-08-01T09:06:35;96787.47;;;31.38;100.00
74868;BME280;63419;42.262;12.210;2023-08-01T09:09:11;96801.91;;;30.13;100.00
74868;BME280;63419;42.262;12.210;2023-08-01T09:11:50;96770.31;;;31.78;100.00
74868;BME280;63419;42.262;12.210;2023-08-01T09:14:19;96796.56;;;30.81;100.00
74868;BME280;63419;42.262;12.210;2023-08-01T09:16:47;96777.34;;;31.89;100.00
74868;BME280;63419;42.262;12.210;2023-08-01T09:19:19;96767.16;;;32.45;100.00
74868;BME280;63419;42.262;12.210;2023-08-01T09:21:47;96739.59;;;33.35;100.00
74868;BME280;63419;42.262;12.210;2023-08-01T09:24:20;96755.50;;;32.19;100.00
74868;BME280;63419;42.262;12.210;2023-08-01T09:26:48;96757.09;;;32.20;100.00
74868;BME280;63419;42.262;12.210;2023-08-01T09:29:20;96733.38;;;32.61;100.00
74868;BME280;63419;42.262;12.210;2023-08-01T09:31:47;96759.69;;;31.11;100.00
74868;BME280;63419;42.262;12.210;2023-08-01T09:34:22;96735.06;;;32.40;100.00
74868;BME280;63419;42.262;12.210;2023-08-01T09:36:49;96738.38;;;31.34;100.00
74868;BME280;63419;42.262;12.210;2023-08-01T09:39:19;96729.41;;;32.27;100.00
74868;BME280;63419;42.262;12.210;2023-08-01T09:41:46;96728.19;;;32.12;100.00
74868;BME280;63419;42.262;12.210;2023-08-01T09:44:20;96710.75;;;33.48;100.00
74868;BME280;63419;42.262;12.210;2023-08-01T09:47:05;96689.34;;;34.50;100.00
74868;BME280;63419;42.262;12.210;2023-08-01T09:49:33;96716.72;;;32.97;100.00
74868;BME280;63419;42.262;12.210;2023-08-01T09:52:00;96689.31;;;34.61;100.00
74868;BME280;63419;42.262;12.210;2023-08-01T09:54:31;96737.38;;;31.18;100.00
74868;BME280;63419;42.262;12.210;2023-08-01T09:56:58;96717.75;;;32.43;100.00
74868;BME280;63419;42.262;12.210;2023-08-01T09:59:26;96689.66;;;34.13;100.00
74868;BME280;63419;42.262;12.210;2023-08-01T10:01:55;96684.56;;;34.17;100.00
74868;BME280;63419;42.262;12.210;2023-08-01T10:04:30;96690.75;;;33.97;100.00
74868;BME280;63419;42.262;12.210;2023-08-01T10:07:03;96676.72;;;34.72;100.00
74868;BME280;63419;42.262;12.210;2023-08-01T10:09:34;96667.38;;;35.19;100.00
74868;BME280;63419;42.262;12.210;2023-08-01T10:12:04;96658.91;;;35.51;100.00
74868;BME280;63419;42.262;12.210;2023-08-01T10:14:33;96655.38;;;35.51;100.00
74868;BME280;63419;42.262;12.210;2023-08-01T10:17:00;96686.41;;;33.49;100.00
74868;BME280;63419;42.262;12.210;2023-08-01T10:19:31;96681.84;;;33.39;100.00
74868;BME280;63419;42.262;12.210;2023-08-01T10:22:00;96672.34;;;34.91;100.00
74868;BME280;63419;42.262;12.210;2023-08-01T10:24:29;96663.91;;;36.27;100.00
74868;BME280;63419;42.262;12.210;2023-08-01T10:26:56;96649.63;;;37.23;100.00
74868;BME280;63419;42.262;12.210;2023-08-01T10:29:34;96671.53;;;36.14;100.00
74868;BME280;63419;42.262;12.210;2023-08-01T10:32:01;96667.44;;;36.22;100.00
74868;BME280;63419;42.262;12.210;2023-08-01T10:34:27;96672.50;;;35.94;100.00
74868;BME280;63419;42.262;12.210;2023-08-01T10:36:56;96651.91;;;37.10;100.00
74868;BME280;63419;42.262;12.210;2023-08-01T10:39:24;96628.56;;;38.56;100.00
74868;BME280;63419;42.262;12.210;2023-08-01T10:42:10;96650.69;;;37.22;100.00
74868;BME280;63419;42.262;12.210;2023-08-01T10:44:45;96644.63;;;37.11;100.00
74868;BME280;63419;42.262;12.210;2023-08-01T10:47:12;96645.91;;;36.27;100.00
74868;BME280;63419;42.262;12.210;2023-08-01T10:49:43;96613.78;;;38.26;100.00
74868;BME280;63419;42.262;12.210;2023-08-01T10:52:29;96601.00;;;39.10;100.00
74868;BME280;63419;42.262;12.210;2023-08-01T10:55:00;96576.47;;;41.03;100.00
74868;BME280;63419;42.262;12.210;2023-08-01T10:57:29;96626.44;;;37.79;100.00
74868;BME280;63419;42.262;12.210;2023-08-01T10:59:58;96614.31;;;39.29;100.00
74868;BME280;63419;42.262;12.210;2023-08-01T11:02:28;96596.25;;;40.14;100.00
74868;BME280;63419;42.262;12.210;2023-08-01T11:04:58;96588.00;;;40.60;100.00
74868;BME280;63419;42.262;12.210;2023-08-01T11:07:25;96594.09;;;40.34;100.00
74868;BME280;63419;42.262;12.210;2023-08-01T11:10:12;96607.16;;;39.24;100.00
74868;BME280;63419;42.262;12.210;2023-08-01T11:12:42;96633.22;;;37.76;100.00
74868;BME280;63419;42.262;12.210;2023-08-01T11:15:12;96695.28;;;33.70;100.00
74868;BME280;63419;42.262;12.210;2023-08-01T11:17:42;96666.53;;;35.29;100.00
74868;BME280;63419;42.262;12.210;2023-08-01T11:20:11;96644.59;;;36.49;100.00
74868;BME280;63419;42.262;12.210;2023-08-01T11:22:53;96661.84;;;33.99;100.00
74868;BME280;63419;42.262;12.210;2023-08-01T11:25:38;96679.69;;;33.21;100.00
74868;BME280;63419;42.262;12.210;2023-08-01T11:28:10;96655.16;;;34.22;100.00
74868;BME280;63419;42.262;12.210;2023-08-01T11:30:37;96681.34;;;33.43;100.00
74868;BME280;63419;42.262;12.210;2023-08-01T11:33:23;96719.28;;;30.75;100.00
74868;BME280;63419;42.262;12.210;2023-08-01T11:35:51;96668.81;;;34.00;100.00
74868;BME280;63419;42.262;12.210;2023-08-01T11:38:26;96583.44;;;39.35;100.00
74868;BME280;63419;42.262;12.210;2023-08-01T11:40:58;96586.34;;;39.02;100.00
74868;BME280;63419;42.262;12.210;2023-08-01T11:43:25;96585.75;;;38.91;100.00
74868;BME280;63419;42.262;12.210;2023-08-01T11:46:10;96566.19;;;39.67;100.00
74868;BME280;63419;42.262;12.210;2023-08-01T11:48:38;96607.59;;;36.65;100.00
74868;BME280;63419;42.262;12.210;2023-08-01T11:51:05;96604.47;;;36.82;100.00
74868;BME280;63419;42.262;12.210;2023-08-01T11:53:31;96569.84;;;39.71;100.00
74868;BME280;63419;42.262;12.210;2023-08-01T11:56:04;96611.09;;;36.65;100.00
74868;BME280;63419;42.262;12.210;2023-08-01T11:58:34;96588.00;;;37.92;100.00
74868;BME280;63419;42.262;12.210;2023-08-01T12:01:09;96656.06;;;32.87;100.00
74868;BME280;63419;42.262;12.210;2023-08-01T12:03:50;96627.63;;;34.81;100.00
74868;BME280;63419;42.262;12.210;2023-08-01T12:06:20;96648.16;;;33.38;100.00
74868;BME280;63419;42.262;12.210;2023-08-01T12:08:51;96609.34;;;35.78;100.00
74868;BME280;63419;42.262;12.210;2023-08-01T12:11:25;96618.31;;;34.68;100.00
74868;BME280;63419;42.262;12.210;2023-08-01T12:14:14;96633.88;;;32.87;100.00
74868;BME280;63419;42.262;12.210;2023-08-01T12:16:45;96618.94;;;34.50;100.00
74868;BME280;63419;42.262;12.210;2023-08-01T12:19:18;96617.28;;;35.14;100.00
74868;BME280;63419;42.262;12.210;2023-08-01T12:21:49;96659.56;;;32.40;100.00
74868;BME280;63419;42.262;12.210;2023-08-01T12:24:17;96613.66;;;34.09;100.00
74868;BME280;63419;42.262;12.210;2023-08-01T12:26:44;96570.69;;;37.13;100.00
74868;BME280;63419;42.262;12.210;2023-08-01T12:29:11;96534.41;;;38.96;100.00
74868;BME280;63419;42.262;12.210;2023-08-01T12:31:38;96602.34;;;34.43;100.00
74868;BME280;63419;42.262;12.210;2023-08-01T12:34:04;96557.09;;;37.05;100.00
74868;BME280;63419;42.262;12.210;2023-08-01T12:36:31;96522.06;;;38.59;100.00
74868;BME280;63419;42.262;12.210;2023-08-01T12:38:57;96565.22;;;35.89;100.00
74868;BME280;63419;42.262;12.210;2023-08-01T12:41:24;96619.31;;;32.04;100.00
74868;BME280;63419;42.262;12.210;2023-08-01T12:43:56;96632.03;;;30.83;100.00
74868;BME280;63419;42.262;12.210;2023-08-01T12:46:23;96599.97;;;32.82;100.00